Crystal Beach, Florida
Current Conditions -  °F | °C
As of 2:55 AM on Saturday 01 Nov 2014 (Local Time) from KCLW Reporting Station
Broken Clouds Broken Clouds  
Wind Chill: 70°   Ceiling: 9000
Heat Index: 70°   Visibility: 10mi
Dew Point: 48°   Wind: 9mph
Humidity: 46%   Direction: 300°WNW
Pressure: 29.9"   Gusts: NA
Location:  28.09°N, 82.78°W
Report Text: KCLW 010655Z AUTO 30008KT 10SM SCT055 BKN090 21/09 A2990 RMK AO2
Loading
Personal Weather Stations






























Interactive Weather Map
Tropical Storm Tracking
New forecast layout! Learn more

10-Day Weather Forecast

Advertisements
Track Severe Weather on mobile